createdAt,value
2022-10-26T00:00:33.451Z,16.10
2022-10-26T00:03:25.528Z,15.80
2022-10-26T00:06:03.157Z,15.50
2022-10-26T00:08:35.594Z,11.90
2022-10-26T00:11:10.040Z,15.40
2022-10-26T00:13:43.216Z,18.20
2022-10-26T00:16:19.345Z,11.60
2022-10-26T00:18:51.972Z,14.20
2022-10-26T00:21:24.701Z,15.00
2022-10-26T00:23:59.859Z,11.70
2022-10-26T00:26:31.866Z,16.40
2022-10-26T00:29:04.598Z,13.60
2022-10-26T00:31:38.241Z,12.20
2022-10-26T00:34:11.945Z,13.50
2022-10-26T00:36:44.286Z,18.50
2022-10-26T00:39:18.097Z,11.90
2022-10-26T00:41:51.142Z,14.00
2022-10-26T00:45:05.730Z,12.20
2022-10-26T00:47:42.917Z,14.60
2022-10-26T00:50:21.437Z,12.20
2022-10-26T00:52:54.521Z,13.50
2022-10-26T00:55:32.984Z,13.40
2022-10-26T00:58:11.336Z,11.90
2022-10-26T01:00:48.150Z,11.90
2022-10-26T01:03:21.640Z,13.20
2022-10-26T01:05:56.617Z,14.50
2022-10-26T01:08:29.986Z,10.20
2022-10-26T01:11:03.698Z,14.50
2022-10-26T01:13:39.663Z,14.30
2022-10-26T01:16:27.250Z,9.90
2022-10-26T01:19:17.928Z,9.30
2022-10-26T01:21:56.244Z,9.70
2022-10-26T01:24:54.291Z,10.10
2022-10-26T01:27:35.715Z,11.80
2022-10-26T01:30:28.190Z,7.40
2022-10-26T01:33:21.392Z,8.80
2022-10-26T01:36:04.589Z,10.00
2022-10-26T01:38:47.363Z,8.50
2022-10-26T01:41:25.241Z,7.80
2022-10-26T01:44:01.345Z,13.90
2022-10-26T01:46:36.468Z,10.80
2022-10-26T01:49:13.093Z,11.10
2022-10-26T01:51:48.386Z,12.30
2022-10-26T01:54:20.543Z,11.20
2022-10-26T01:56:56.754Z,14.90
2022-10-26T01:59:41.006Z,14.00
2022-10-26T02:02:33.629Z,14.90
2022-10-26T02:05:32.703Z,14.70
2022-10-26T02:08:24.121Z,13.30
2022-10-26T02:11:10.411Z,13.70
2022-10-26T02:13:48.013Z,15.00
2022-10-26T02:16:26.093Z,14.80
2022-10-26T02:19:06.457Z,12.90
2022-10-26T02:21:44.800Z,14.00
2022-10-26T02:24:18.331Z,13.60
2022-10-26T02:26:51.895Z,11.70
2022-10-26T02:29:26.215Z,15.20
2022-10-26T02:31:59.147Z,13.30
2022-10-26T02:34:31.774Z,16.40
2022-10-26T02:37:06.081Z,16.70
2022-10-26T02:39:40.549Z,21.20
2022-10-26T02:42:15.606Z,15.70
2022-10-26T02:44:52.501Z,14.50
2022-10-26T02:47:27.846Z,16.00
2022-10-26T02:50:00.995Z,16.80
2022-10-26T02:52:45.685Z,16.10
2022-10-26T02:55:24.592Z,16.00
2022-10-26T02:57:59.543Z,15.40
2022-10-26T03:00:34.627Z,19.20
2022-10-26T03:03:07.436Z,16.30
2022-10-26T03:05:44.838Z,14.20
2022-10-26T03:08:16.894Z,20.30
2022-10-26T03:10:49.283Z,14.60
2022-10-26T03:13:21.249Z,18.40
2022-10-26T03:15:55.963Z,14.60
2022-10-26T03:18:27.971Z,16.10
2022-10-26T03:20:59.908Z,16.70
2022-10-26T03:23:31.980Z,16.70
2022-10-26T03:26:04.225Z,20.50
2022-10-26T03:28:36.522Z,19.70
2022-10-26T03:31:11.217Z,17.00
2022-10-26T03:33:43.545Z,16.40
2022-10-26T03:36:15.440Z,15.10
2022-10-26T03:38:47.846Z,13.50
2022-10-26T03:41:22.246Z,14.90
2022-10-26T03:43:54.729Z,14.50
2022-10-26T03:46:28.973Z,15.10
2022-10-26T03:49:00.992Z,11.70
2022-10-26T03:51:33.389Z,12.80
2022-10-26T03:54:05.754Z,17.70
2022-10-26T03:56:39.390Z,12.10
2022-10-26T03:59:11.478Z,13.70
2022-10-26T04:01:43.534Z,14.90
2022-10-26T04:04:16.109Z,14.60
2022-10-26T04:06:49.120Z,17.80
2022-10-26T04:09:21.305Z,16.80
2022-10-26T04:11:53.440Z,15.90
2022-10-26T04:14:25.656Z,17.00
2022-10-26T04:16:57.685Z,18.00
2022-10-26T04:19:32.176Z,13.40
2022-10-26T04:22:04.112Z,15.20
2022-10-26T04:24:36.486Z,11.30
2022-10-26T04:27:11.230Z,17.10
2022-10-26T04:29:43.300Z,13.50
2022-10-26T04:32:15.269Z,17.90
2022-10-26T04:34:47.307Z,14.30
2022-10-26T04:37:19.314Z,17.00
2022-10-26T04:39:51.314Z,14.70
2022-10-26T04:42:23.634Z,19.40
2022-10-26T04:44:55.663Z,17.10
2022-10-26T04:47:27.721Z,14.50
2022-10-26T04:50:02.087Z,16.30
2022-10-26T04:52:34.053Z,18.70
2022-10-26T04:55:07.168Z,18.50
2022-10-26T04:57:39.148Z,20.10
2022-10-26T05:00:13.052Z,18.70
2022-10-26T05:02:45.135Z,18.90
2022-10-26T05:05:17.403Z,17.90
2022-10-26T05:07:56.878Z,19.60
2022-10-26T05:10:29.591Z,24.20
2022-10-26T05:13:02.658Z,21.60
2022-10-26T05:15:34.624Z,19.60
2022-10-26T05:18:09.126Z,15.30
2022-10-26T05:20:41.051Z,20.60
2022-10-26T05:23:18.415Z,16.00
2022-10-26T05:25:51.898Z,21.20
2022-10-26T05:28:24.461Z,18.90
2022-10-26T05:30:56.399Z,23.40
2022-10-26T05:33:28.872Z,18.70
2022-10-26T05:36:00.902Z,20.30
2022-10-26T05:38:32.926Z,18.50
2022-10-26T05:41:05.160Z,20.80
2022-10-26T05:43:37.111Z,17.50
2022-10-26T05:46:09.137Z,14.90
2022-10-26T05:48:41.068Z,15.70
2022-10-26T05:51:14.374Z,19.10
2022-10-26T05:53:46.347Z,17.20
2022-10-26T05:56:24.409Z,15.90
2022-10-26T05:58:57.239Z,16.10
2022-10-26T06:01:43.875Z,15.50
2022-10-26T06:04:27.720Z,16.10
2022-10-26T06:07:00.475Z,15.90
2022-10-26T06:09:33.583Z,18.40
2022-10-26T06:12:07.450Z,18.50
2022-10-26T06:14:40.376Z,20.00
2022-10-26T06:17:36.635Z,15.90
2022-10-26T06:20:22.286Z,19.00
2022-10-26T06:23:06.541Z,19.30
2022-10-26T06:25:45.534Z,18.40
2022-10-26T06:28:29.874Z,20.70
2022-10-26T06:31:01.925Z,20.90
2022-10-26T06:33:34.236Z,19.00
2022-10-26T06:36:21.701Z,20.10
2022-10-26T06:38:58.081Z,19.90
2022-10-26T06:41:32.052Z,19.20
2022-10-26T06:44:06.292Z,22.60
2022-10-26T06:46:45.075Z,23.10
2022-10-26T06:49:23.212Z,23.10
2022-10-26T06:51:59.879Z,23.10
2022-10-26T06:54:46.704Z,26.70
2022-10-26T06:57:22.485Z,25.40
2022-10-26T07:00:01.124Z,21.80
2022-10-26T07:02:33.936Z,26.30
2022-10-26T07:05:10.239Z,30.10
2022-10-26T07:07:44.350Z,27.20
2022-10-26T07:10:17.723Z,25.30
2022-10-26T07:12:49.830Z,25.60
2022-10-26T07:15:24.665Z,25.80
2022-10-26T07:17:56.585Z,26.00
2022-10-26T07:20:30.189Z,23.10
2022-10-26T07:23:06.933Z,23.90
2022-10-26T07:25:40.578Z,20.80
2022-10-26T07:28:13.184Z,20.30
2022-10-26T07:30:45.205Z,23.50
2022-10-26T07:33:17.564Z,19.50
2022-10-26T07:35:52.124Z,22.80
2022-10-26T07:38:24.042Z,19.80
2022-10-26T07:40:56.024Z,20.60
2022-10-26T07:43:28.421Z,21.50
2022-10-26T07:46:00.369Z,20.90
2022-10-26T07:48:32.574Z,16.50
2022-10-26T07:51:05.491Z,22.40
2022-10-26T07:53:37.458Z,21.90
2022-10-26T07:56:11.232Z,19.50
2022-10-26T07:58:44.086Z,19.60
2022-10-26T08:01:17.708Z,17.50
2022-10-26T08:03:52.659Z,17.00
2022-10-26T08:06:25.130Z,16.60
2022-10-26T08:09:00.022Z,27.20
2022-10-26T08:11:32.070Z,18.70
2022-10-26T08:14:04.484Z,21.00
2022-10-26T08:16:36.410Z,17.50
2022-10-26T08:19:08.659Z,16.80
2022-10-26T08:21:41.937Z,13.20
2022-10-26T08:24:14.684Z,16.80
2022-10-26T08:26:46.565Z,14.20
2022-10-26T08:29:20.452Z,21.60
2022-10-26T08:31:52.412Z,12.50
2022-10-26T08:34:24.287Z,12.80
2022-10-26T08:55:05.524Z,12.50
2022-10-26T09:11:09.972Z,8.00
2022-10-26T09:15:33.459Z,8.10
2022-10-26T09:27:16.723Z,6.30
2022-10-26T09:29:56.315Z,6.60
2022-10-26T09:35:07.661Z,6.20
2022-10-26T09:37:42.001Z,5.00
2022-10-26T09:40:22.871Z,6.30
2022-10-26T09:43:03.886Z,7.20
2022-10-26T09:45:39.027Z,7.20
2022-10-26T09:48:17.688Z,6.20
2022-10-26T09:50:52.550Z,5.20
2022-10-26T09:53:25.008Z,6.80
2022-10-26T09:56:06.708Z,5.60
2022-10-26T09:58:42.744Z,5.50
2022-10-26T10:01:35.687Z,6.30
2022-10-26T10:04:21.163Z,6.40
2022-10-26T10:07:12.387Z,4.20
2022-10-26T10:09:44.430Z,5.20
2022-10-26T10:12:23.101Z,6.20
2022-10-26T10:15:01.856Z,5.70
2022-10-26T10:17:34.708Z,4.00
2022-10-26T10:20:19.227Z,4.00
2022-10-26T10:22:59.866Z,6.20
2022-10-26T10:25:40.182Z,5.10
2022-10-26T10:28:25.670Z,7.70
2022-10-26T10:31:00.511Z,6.80
2022-10-26T10:33:45.866Z,3.70
2022-10-26T10:36:59.365Z,5.00
2022-10-26T10:39:38.695Z,5.10
2022-10-26T10:42:22.974Z,4.00
2022-10-26T10:44:56.839Z,2.60
2022-10-26T10:47:30.901Z,2.70
2022-10-26T10:50:05.884Z,5.90
2022-10-26T10:52:41.263Z,4.10
2022-10-26T10:55:22.178Z,2.40
2022-10-26T10:58:09.465Z,5.60
2022-10-26T11:00:45.088Z,5.00
2022-10-26T11:03:32.353Z,6.00
2022-10-26T11:06:16.411Z,4.10
2022-10-26T11:08:53.746Z,6.30
2022-10-26T11:11:29.994Z,9.20
2022-10-26T11:14:06.847Z,4.40
2022-10-26T11:16:43.680Z,5.50
2022-10-26T11:19:23.872Z,4.50
2022-10-26T11:21:57.265Z,3.20
2022-10-26T11:24:35.313Z,4.80
2022-10-26T11:27:17.094Z,4.80
2022-10-26T11:29:52.890Z,4.10
2022-10-26T11:32:29.979Z,8.10
2022-10-26T11:35:06.783Z,6.60
2022-10-26T11:37:46.484Z,7.60
2022-10-26T11:40:34.746Z,4.90
2022-10-26T11:43:15.615Z,5.90
2022-10-26T11:45:55.665Z,9.90
2022-10-26T11:48:37.140Z,10.30
2022-10-26T11:51:17.788Z,8.40
2022-10-26T11:54:08.345Z,11.50
2022-10-26T11:56:45.519Z,11.70
2022-10-26T11:59:21.987Z,3.60
2022-10-26T12:01:58.356Z,6.00
2022-10-26T12:04:34.878Z,11.30
2022-10-26T12:07:12.724Z,8.80
2022-10-26T12:09:46.472Z,10.50
2022-10-26T12:12:28.077Z,7.70
2022-10-26T12:15:07.104Z,5.10
2022-10-26T12:17:46.717Z,4.30
2022-10-26T12:20:50.583Z,6.90
2022-10-26T12:23:40.510Z,5.90
2022-10-26T12:26:51.634Z,8.00
2022-10-26T12:29:45.706Z,8.70
2022-10-26T12:32:54.322Z,11.20
2022-10-26T12:35:35.503Z,7.30
2022-10-26T12:38:55.535Z,7.70
2022-10-26T12:41:29.207Z,6.20
2022-10-26T12:44:25.517Z,6.30
2022-10-26T12:46:57.528Z,10.10
2022-10-26T12:49:59.708Z,28.40
2022-10-26T12:52:47.501Z,9.50
2022-10-26T12:55:57.249Z,6.40
2022-10-26T12:59:05.243Z,7.70
2022-10-26T13:05:06.075Z,11.30
2022-10-26T13:07:41.652Z,20.30
2022-10-26T13:10:24.304Z,4.40
2022-10-26T13:12:58.383Z,2.60
2022-10-26T13:15:34.646Z,2.30
2022-10-26T13:18:18.019Z,3.90
2022-10-26T13:21:05.283Z,4.00
2022-10-26T13:23:39.836Z,2.20
2022-10-26T13:26:13.894Z,2.40
2022-10-26T13:28:52.095Z,3.10
2022-10-26T13:31:57.794Z,3.50
2022-10-26T13:34:33.047Z,3.00
2022-10-26T13:37:21.356Z,4.80
2022-10-26T13:39:56.325Z,2.80
2022-10-26T13:49:47.510Z,2.70
2022-10-26T13:52:28.745Z,3.30
2022-10-26T13:55:04.913Z,4.20
2022-10-26T13:57:40.611Z,7.60
2022-10-26T14:00:20.546Z,5.30
2022-10-26T14:02:52.911Z,6.20
2022-10-26T14:05:26.089Z,4.40
2022-10-26T14:08:00.355Z,4.20
2022-10-26T14:10:38.104Z,4.70
2022-10-26T14:13:19.242Z,2.80
2022-10-26T14:15:51.564Z,6.60
2022-10-26T14:18:26.665Z,1.50
2022-10-26T14:21:03.317Z,2.00
2022-10-26T14:23:38.971Z,2.10
2022-10-26T14:26:22.425Z,3.30
2022-10-26T14:28:59.388Z,2.50
2022-10-26T14:31:35.835Z,2.90
2022-10-26T14:34:13.500Z,1.90
2022-10-26T14:36:49.967Z,5.70
2022-10-26T14:39:31.356Z,3.00
2022-10-26T14:42:11.492Z,2.90
2022-10-26T14:44:43.864Z,5.50
2022-10-26T14:47:24.453Z,2.80
2022-10-26T14:49:57.594Z,3.60
2022-10-26T14:52:33.927Z,3.40
2022-10-26T14:55:16.206Z,2.70
2022-10-26T14:57:49.764Z,5.30
2022-10-26T15:00:24.550Z,6.10
2022-10-26T15:02:59.300Z,4.80
2022-10-26T15:05:35.989Z,3.30
2022-10-26T15:08:56.967Z,5.90
2022-10-26T15:11:33.601Z,4.10
2022-10-26T15:14:12.738Z,4.00
2022-10-26T15:16:54.892Z,5.30
2022-10-26T15:19:30.879Z,4.00
2022-10-26T15:22:03.637Z,3.90
2022-10-26T15:24:40.054Z,3.00
2022-10-26T15:27:19.296Z,7.90
2022-10-26T15:30:09.315Z,5.30
2022-10-26T15:32:42.062Z,4.00
2022-10-26T15:35:33.644Z,5.10
2022-10-26T15:38:05.821Z,7.10
2022-10-26T15:40:45.480Z,5.90
2022-10-26T15:43:17.571Z,3.10
2022-10-26T15:45:54.638Z,7.30
2022-10-26T15:48:30.038Z,6.80
2022-10-26T15:51:02.114Z,7.40
2022-10-26T15:53:34.738Z,7.00
2022-10-26T15:56:14.348Z,6.40
2022-10-26T15:58:47.160Z,5.50
2022-10-26T16:01:29.434Z,4.20
2022-10-26T16:04:02.351Z,9.50
2022-10-26T16:06:36.459Z,3.70
2022-10-26T16:09:13.550Z,5.40
2022-10-26T16:11:46.202Z,2.30
2022-10-26T16:14:21.223Z,4.30
2022-10-26T16:16:53.182Z,5.00
2022-10-26T16:19:30.718Z,7.40
2022-10-26T16:22:04.061Z,4.40
2022-10-26T16:24:36.537Z,8.10
2022-10-26T16:27:08.505Z,9.60
2022-10-26T16:29:40.541Z,7.80
2022-10-26T16:32:13.004Z,7.50
2022-10-26T16:34:45.097Z,5.70
2022-10-26T16:37:17.237Z,8.00
2022-10-26T16:39:49.109Z,7.00
2022-10-26T16:42:21.128Z,8.40
2022-10-26T16:44:54.096Z,5.20
2022-10-26T16:47:26.482Z,7.00
2022-10-26T16:49:58.571Z,12.80
2022-10-26T16:52:30.914Z,6.00
2022-10-26T16:55:03.541Z,8.70
2022-10-26T16:57:35.839Z,10.70
2022-10-26T17:00:10.242Z,9.40
2022-10-26T17:02:44.500Z,10.70
2022-10-26T17:05:16.751Z,10.30
2022-10-26T17:07:50.660Z,13.20
2022-10-26T17:10:28.148Z,14.50
2022-10-26T17:13:00.121Z,8.90
2022-10-26T17:15:35.688Z,9.60
2022-10-26T17:18:12.027Z,10.60
2022-10-26T17:40:46.022Z,9.00
2022-10-26T17:43:18.633Z,9.10
2022-10-26T17:48:45.839Z,9.80
2022-10-26T17:56:09.075Z,9.80
2022-10-26T17:59:14.734Z,11.10
2022-10-26T18:01:47.433Z,8.00
2022-10-26T18:04:26.045Z,10.40
2022-10-26T18:11:55.045Z,9.20
2022-10-26T18:24:22.946Z,15.70
2022-10-26T18:26:55.179Z,13.20
2022-10-26T18:29:27.314Z,15.10
2022-10-26T18:32:28.874Z,13.70
2022-10-26T18:35:01.252Z,18.50
2022-10-26T18:38:56.384Z,15.70
2022-10-26T18:46:33.966Z,26.00
2022-10-26T18:54:44.667Z,29.60
2022-10-26T19:05:58.570Z,33.90
2022-10-26T19:08:30.866Z,28.00
2022-10-26T19:11:43.490Z,31.30
2022-10-26T19:14:16.439Z,36.70
2022-10-26T19:16:51.732Z,33.30
2022-10-26T19:25:40.554Z,36.80
2022-10-26T19:31:16.262Z,37.50
2022-10-26T19:35:18.362Z,38.70
2022-10-26T19:37:51.014Z,38.40
2022-10-26T19:40:23.751Z,34.70
2022-10-26T19:43:02.158Z,39.30
2022-10-26T19:45:34.185Z,38.60
2022-10-26T19:48:51.947Z,31.80
2022-10-26T19:51:25.420Z,36.30
2022-10-26T19:54:03.104Z,31.60
2022-10-26T19:56:39.416Z,33.90
2022-10-26T19:59:13.602Z,51.70
2022-10-26T20:01:45.845Z,70.60
2022-10-26T20:04:36.939Z,77.60
2022-10-26T20:07:09.128Z,80.80
2022-10-26T20:09:47.089Z,84.50
2022-10-26T20:12:19.304Z,80.20
2022-10-26T20:14:51.328Z,67.20
2022-10-26T20:17:28.493Z,68.40
2022-10-26T20:20:03.984Z,61.10
2022-10-26T20:22:36.135Z,56.60
2022-10-26T20:25:10.390Z,55.40
2022-10-26T20:27:48.646Z,52.30
2022-10-26T20:30:21.118Z,49.40
2022-10-26T20:32:53.343Z,39.50
2022-10-26T20:35:27.162Z,35.00
2022-10-26T20:38:00.906Z,35.60
2022-10-26T20:40:34.129Z,40.90
2022-10-26T20:43:09.865Z,38.40
2022-10-26T20:45:49.017Z,35.20
2022-10-26T20:48:24.670Z,35.90
2022-10-26T20:51:02.422Z,37.40
2022-10-26T20:53:39.390Z,41.10
2022-10-26T20:56:21.077Z,49.20
2022-10-26T20:58:57.510Z,39.90
2022-10-26T21:01:32.024Z,42.10
2022-10-26T21:04:07.269Z,42.20
2022-10-26T21:06:55.567Z,42.50
2022-10-26T21:09:31.794Z,45.60
2022-10-26T21:12:08.644Z,44.10
2022-10-26T21:14:41.090Z,40.50
2022-10-26T21:17:13.378Z,47.70
2022-10-26T21:19:53.963Z,38.60
2022-10-26T21:22:26.102Z,46.70
2022-10-26T21:24:58.424Z,42.30
2022-10-26T21:27:31.593Z,47.20
2022-10-26T21:30:06.679Z,46.10
2022-10-26T21:32:38.688Z,42.30
2022-10-26T21:35:11.320Z,40.40
2022-10-26T21:37:46.450Z,41.70
2022-10-26T21:40:18.763Z,44.00
2022-10-26T21:42:53.977Z,37.10
2022-10-26T21:45:26.121Z,39.60
2022-10-26T21:47:58.097Z,41.10
2022-10-26T21:50:30.152Z,35.20
2022-10-26T21:53:02.492Z,35.60
2022-10-26T21:55:34.993Z,37.30
2022-10-26T21:58:11.065Z,37.50
2022-10-26T22:00:46.191Z,40.10
2022-10-26T22:03:23.036Z,41.80
2022-10-26T22:06:06.844Z,49.60
2022-10-26T22:08:39.646Z,49.00
2022-10-26T22:11:15.798Z,43.50
2022-10-26T22:13:52.401Z,45.90
2022-10-26T22:16:26.409Z,44.50
2022-10-26T22:19:04.022Z,42.00
2022-10-26T22:21:40.283Z,44.90
2022-10-26T22:24:12.759Z,44.70
2022-10-26T22:26:44.764Z,42.60
2022-10-26T22:29:19.880Z,41.80
2022-10-26T22:31:55.129Z,50.50
2022-10-26T22:34:28.114Z,59.10
2022-10-26T22:37:00.160Z,69.70
2022-10-26T22:39:32.165Z,75.00
2022-10-26T22:42:06.931Z,81.90
2022-10-26T22:44:39.117Z,81.70
2022-10-26T22:47:13.789Z,90.50
2022-10-26T22:49:46.827Z,111.80
2022-10-26T22:52:22.719Z,100.40
2022-10-26T22:54:55.340Z,99.70
2022-10-26T22:57:27.926Z,108.60
2022-10-26T23:00:00.780Z,106.10
2022-10-26T23:02:38.152Z,126.60
2022-10-26T23:05:11.429Z,113.70
2022-10-26T23:07:43.453Z,113.80
2022-10-26T23:10:15.470Z,114.10
2022-10-26T23:12:50.024Z,100.50
2022-10-26T23:15:22.156Z,105.60
2022-10-26T23:17:55.996Z,102.60
2022-10-26T23:20:32.443Z,107.70
2022-10-26T23:23:04.833Z,112.30
2022-10-26T23:25:36.866Z,103.50
2022-10-26T23:28:12.915Z,98.10
2022-10-26T23:30:47.508Z,101.50
2022-10-26T23:33:22.326Z,103.60
2022-10-26T23:35:58.943Z,107.50
2022-10-26T23:38:34.317Z,103.20
2022-10-26T23:41:12.817Z,99.80
2022-10-26T23:43:45.940Z,88.50
2022-10-26T23:46:18.344Z,93.30
2022-10-26T23:48:53.990Z,80.10
2022-10-26T23:51:26.890Z,85.50
2022-10-26T23:53:59.948Z,92.20
2022-10-26T23:56:32.311Z,93.30
2022-10-26T23:59:08.595Z,96.40
